sensor_id;sensor_type;location;lat;lon;timestamp;pressure;altitude;pressure_sealevel;temperature;humidity
72558;BME280;60583;50.094;8.748;2023-09-19T00:02:01;99823.34;;;17.40;100.00
72558;BME280;60583;50.094;8.748;2023-09-19T00:04:31;99813.63;;;17.34;100.00
72558;BME280;60583;50.094;8.748;2023-09-19T00:06:58;99824.72;;;17.43;100.00
72558;BME280;60583;50.094;8.748;2023-09-19T00:09:24;99833.09;;;17.41;100.00
72558;BME280;60583;50.094;8.748;2023-09-19T00:11:52;99831.75;;;17.44;100.00
72558;BME280;60583;50.094;8.748;2023-09-19T00:14:18;99830.63;;;17.40;100.00
72558;BME280;60583;50.094;8.748;2023-09-19T00:16:43;99817.22;;;17.18;100.00
72558;BME280;60583;50.094;8.748;2023-09-19T00:19:09;99828.09;;;17.28;100.00
72558;BME280;60583;50.094;8.748;2023-09-19T00:21:35;99842.03;;;17.20;100.00
72558;BME280;60583;50.094;8.748;2023-09-19T00:24:06;99841.63;;;17.33;100.00
72558;BME280;60583;50.094;8.748;2023-09-19T00:26:32;99841.59;;;17.28;100.00
72558;BME280;60583;50.094;8.748;2023-09-19T00:28:57;99813.25;;;17.26;100.00
72558;BME280;60583;50.094;8.748;2023-09-19T00:31:30;99831.25;;;17.20;100.00
72558;BME280;60583;50.094;8.748;2023-09-19T00:33:55;99835.69;;;17.31;100.00
72558;BME280;60583;50.094;8.748;2023-09-19T00:36:22;99811.47;;;17.09;100.00
72558;BME280;60583;50.094;8.748;2023-09-19T00:38:48;99826.38;;;17.17;100.00
72558;BME280;60583;50.094;8.748;2023-09-19T00:41:13;99838.97;;;17.38;100.00
72558;BME280;60583;50.094;8.748;2023-09-19T00:43:40;99836.28;;;17.38;100.00
72558;BME280;60583;50.094;8.748;2023-09-19T00:46:06;99844.16;;;17.45;99.99
72558;BME280;60583;50.094;8.748;2023-09-19T00:48:32;99816.47;;;17.22;99.53
72558;BME280;60583;50.094;8.748;2023-09-19T00:51:04;99836.47;;;17.27;100.00
72558;BME280;60583;50.094;8.748;2023-09-19T00:53:30;99843.72;;;17.26;100.00
72558;BME280;60583;50.094;8.748;2023-09-19T00:55:56;99845.28;;;17.22;100.00
72558;BME280;60583;50.094;8.748;2023-09-19T00:58:21;99816.59;;;17.06;100.00
72558;BME280;60583;50.094;8.748;2023-09-19T01:00:50;99824.84;;;16.99;100.00
72558;BME280;60583;50.094;8.748;2023-09-19T01:03:22;99851.31;;;17.29;100.00
72558;BME280;60583;50.094;8.748;2023-09-19T01:05:47;99856.59;;;17.19;100.00
72558;BME280;60583;50.094;8.748;2023-09-19T01:08:13;99859.94;;;17.31;100.00
72558;BME280;60583;50.094;8.748;2023-09-19T01:10:59;99855.09;;;17.33;100.00
72558;BME280;60583;50.094;8.748;2023-09-19T01:13:34;99862.19;;;17.39;99.83
72558;BME280;60583;50.094;8.748;2023-09-19T01:16:19;99849.25;;;17.41;99.21
72558;BME280;60583;50.094;8.748;2023-09-19T01:19:12;99852.91;;;17.30;99.50
72558;BME280;60583;50.094;8.748;2023-09-19T01:22:13;99860.44;;;17.28;99.46
72558;BME280;60583;50.094;8.748;2023-09-19T01:30:56;99892.38;;;17.41;98.89
72558;BME280;60583;50.094;8.748;2023-09-19T01:33:24;99891.53;;;17.36;98.89
72558;BME280;60583;50.094;8.748;2023-09-19T01:35:49;99910.31;;;17.52;98.35
72558;BME280;60583;50.094;8.748;2023-09-19T01:38:15;99904.78;;;17.42;98.14
72558;BME280;60583;50.094;8.748;2023-09-19T01:40:51;99921.72;;;17.59;97.65
72558;BME280;60583;50.094;8.748;2023-09-19T01:43:32;99917.94;;;17.60;97.37
72558;BME280;60583;50.094;8.748;2023-09-19T01:46:14;99926.38;;;17.69;97.14
72558;BME280;60583;50.094;8.748;2023-09-19T01:54:27;99910.16;;;17.64;96.76
72558;BME280;60583;50.094;8.748;2023-09-19T01:57:29;99911.56;;;17.71;96.31
72558;BME280;60583;50.094;8.748;2023-09-19T02:00:28;99929.03;;;17.64;97.38
72558;BME280;60583;50.094;8.748;2023-09-19T02:02:53;99931.19;;;17.62;97.58
72558;BME280;60583;50.094;8.748;2023-09-19T02:05:24;99940.31;;;17.61;97.69
72558;BME280;60583;50.094;8.748;2023-09-19T02:07:53;99936.00;;;17.60;97.62
72558;BME280;60583;50.094;8.748;2023-09-19T02:10:19;99922.59;;;17.43;97.90
72558;BME280;60583;50.094;8.748;2023-09-19T02:12:47;99941.78;;;17.47;98.26
72558;BME280;60583;50.094;8.748;2023-09-19T02:15:13;99934.69;;;17.41;98.81
72558;BME280;60583;50.094;8.748;2023-09-19T02:17:43;99933.88;;;17.40;98.52
72558;BME280;60583;50.094;8.748;2023-09-19T02:20:11;99954.44;;;17.46;98.52
72558;BME280;60583;50.094;8.748;2023-09-19T02:22:46;99938.66;;;17.33;99.04
72558;BME280;60583;50.094;8.748;2023-09-19T02:25:11;99955.16;;;17.37;99.08
72558;BME280;60583;50.094;8.748;2023-09-19T02:27:36;99936.84;;;17.17;99.33
72558;BME280;60583;50.094;8.748;2023-09-19T02:30:03;99942.50;;;17.15;99.66
72558;BME280;60583;50.094;8.748;2023-09-19T02:32:29;99959.63;;;17.26;99.46
72558;BME280;60583;50.094;8.748;2023-09-19T02:34:55;99958.47;;;17.22;99.63
72558;BME280;60583;50.094;8.748;2023-09-19T02:37:21;99965.13;;;17.14;99.95
72558;BME280;60583;50.094;8.748;2023-09-19T02:39:47;99949.66;;;17.05;99.92
72558;BME280;60583;50.094;8.748;2023-09-19T02:42:12;99965.88;;;17.10;100.00
72558;BME280;60583;50.094;8.748;2023-09-19T02:44:37;99968.72;;;16.98;100.00
72558;BME280;60583;50.094;8.748;2023-09-19T02:47:03;99970.22;;;17.11;100.00
72558;BME280;60583;50.094;8.748;2023-09-19T02:49:29;99959.66;;;17.09;100.00
72558;BME280;60583;50.094;8.748;2023-09-19T02:51:54;99969.97;;;17.12;99.74
72558;BME280;60583;50.094;8.748;2023-09-19T02:54:19;99968.63;;;17.15;99.09
72558;BME280;60583;50.094;8.748;2023-09-19T02:56:45;99962.56;;;17.03;99.47
72558;BME280;60583;50.094;8.748;2023-09-19T02:59:12;99970.44;;;17.09;99.64
72558;BME280;60583;50.094;8.748;2023-09-19T03:01:38;99965.25;;;17.03;99.68
72558;BME280;60583;50.094;8.748;2023-09-19T03:04:04;99969.53;;;16.99;99.80
72558;BME280;60583;50.094;8.748;2023-09-19T03:06:36;99956.00;;;16.94;99.75
72558;BME280;60583;50.094;8.748;2023-09-19T03:09:02;99977.63;;;16.99;100.00
72558;BME280;60583;50.094;8.748;2023-09-19T03:11:29;99968.59;;;16.88;100.00
72558;BME280;60583;50.094;8.748;2023-09-19T03:13:54;99973.47;;;16.91;100.00
72558;BME280;60583;50.094;8.748;2023-09-19T03:16:20;99977.72;;;16.87;100.00
72558;BME280;60583;50.094;8.748;2023-09-19T03:18:50;99988.34;;;16.77;100.00
72558;BME280;60583;50.094;8.748;2023-09-19T03:21:16;99969.28;;;16.79;100.00
72558;BME280;60583;50.094;8.748;2023-09-19T03:23:42;99976.13;;;16.70;100.00
72558;BME280;60583;50.094;8.748;2023-09-19T03:26:10;99975.44;;;16.57;100.00
72558;BME280;60583;50.094;8.748;2023-09-19T03:28:35;99989.38;;;16.54;100.00
72558;BME280;60583;50.094;8.748;2023-09-19T03:31:02;99976.66;;;16.33;100.00
72558;BME280;60583;50.094;8.748;2023-09-19T03:33:28;99982.28;;;16.48;100.00
72558;BME280;60583;50.094;8.748;2023-09-19T03:35:53;99967.84;;;16.38;100.00
72558;BME280;60583;50.094;8.748;2023-09-19T03:38:19;99972.22;;;16.44;100.00
72558;BME280;60583;50.094;8.748;2023-09-19T03:40:45;99992.63;;;16.40;100.00
72558;BME280;60583;50.094;8.748;2023-09-19T03:43:10;99992.13;;;16.26;100.00
72558;BME280;60583;50.094;8.748;2023-09-19T03:45:36;100007.66;;;16.36;100.00
72558;BME280;60583;50.094;8.748;2023-09-19T03:48:08;99999.50;;;16.31;100.00
72558;BME280;60583;50.094;8.748;2023-09-19T03:50:33;99983.34;;;16.14;100.00
72558;BME280;60583;50.094;8.748;2023-09-19T03:52:59;99994.19;;;16.19;100.00
72558;BME280;60583;50.094;8.748;2023-09-19T03:55:24;100005.84;;;16.25;100.00
72558;BME280;60583;50.094;8.748;2023-09-19T03:57:49;99994.53;;;16.23;100.00
72558;BME280;60583;50.094;8.748;2023-09-19T04:00:15;99983.91;;;16.00;100.00
72558;BME280;60583;50.094;8.748;2023-09-19T04:02:43;99998.44;;;16.15;100.00
72558;BME280;60583;50.094;8.748;2023-09-19T04:05:12;99993.53;;;16.12;100.00
72558;BME280;60583;50.094;8.748;2023-09-19T04:07:37;99999.97;;;16.11;100.00
72558;BME280;60583;50.094;8.748;2023-09-19T04:10:03;99993.44;;;16.07;100.00
72558;BME280;60583;50.094;8.748;2023-09-19T04:12:28;99987.59;;;16.10;100.00
72558;BME280;60583;50.094;8.748;2023-09-19T04:14:53;99995.41;;;16.12;100.00
72558;BME280;60583;50.094;8.748;2023-09-19T04:17:19;100010.31;;;16.19;100.00
72558;BME280;60583;50.094;8.748;2023-09-19T04:19:44;100011.72;;;16.22;100.00
72558;BME280;60583;50.094;8.748;2023-09-19T04:22:11;100020.03;;;16.20;100.00
72558;BME280;60583;50.094;8.748;2023-09-19T04:24:37;100009.69;;;16.12;99.64
72558;BME280;60583;50.094;8.748;2023-09-19T04:27:04;100031.28;;;16.17;99.46
72558;BME280;60583;50.094;8.748;2023-09-19T04:29:29;100021.34;;;16.18;99.13
72558;BME280;60583;50.094;8.748;2023-09-19T04:31:55;100030.41;;;16.28;98.12
72558;BME280;60583;50.094;8.748;2023-09-19T04:34:21;100020.69;;;16.27;96.97
72558;BME280;60583;50.094;8.748;2023-09-19T04:36:47;100024.94;;;16.23;96.45
72558;BME280;60583;50.094;8.748;2023-09-19T04:39:12;100039.22;;;16.40;96.17
72558;BME280;60583;50.094;8.748;2023-09-19T04:41:38;100048.19;;;16.46;95.25
72558;BME280;60583;50.094;8.748;2023-09-19T04:44:06;100034.31;;;16.37;95.37
72558;BME280;60583;50.094;8.748;2023-09-19T04:46:31;100036.50;;;16.40;95.27
72558;BME280;60583;50.094;8.748;2023-09-19T04:48:57;100021.66;;;16.21;95.81
72558;BME280;60583;50.094;8.748;2023-09-19T04:51:22;100027.47;;;16.13;96.14
72558;BME280;60583;50.094;8.748;2023-09-19T04:53:48;100041.41;;;16.27;95.77
72558;BME280;60583;50.094;8.748;2023-09-19T04:56:14;100028.19;;;16.25;95.37
72558;BME280;60583;50.094;8.748;2023-09-19T04:58:40;100043.59;;;16.30;95.25
72558;BME280;60583;50.094;8.748;2023-09-19T05:01:05;100033.09;;;16.28;93.01
72558;BME280;60583;50.094;8.748;2023-09-19T05:03:31;100039.13;;;16.35;92.96
72558;BME280;60583;50.094;8.748;2023-09-19T05:05:56;100049.41;;;16.38;92.00
72558;BME280;60583;50.094;8.748;2023-09-19T05:08:22;100046.81;;;16.43;91.71
72558;BME280;60583;50.094;8.748;2023-09-19T05:10:48;100046.28;;;16.46;91.81
72558;BME280;60583;50.094;8.748;2023-09-19T05:13:14;100033.00;;;16.40;91.99
72558;BME280;60583;50.094;8.748;2023-09-19T05:15:40;100048.09;;;16.41;92.43
72558;BME280;60583;50.094;8.748;2023-09-19T05:18:05;100053.16;;;16.37;92.86
72558;BME280;60583;50.094;8.748;2023-09-19T05:20:31;100050.38;;;16.32;93.07
72558;BME280;60583;50.094;8.748;2023-09-19T05:23:04;100062.78;;;16.33;93.66
72558;BME280;60583;50.094;8.748;2023-09-19T05:25:33;100070.44;;;16.41;93.40
72558;BME280;60583;50.094;8.748;2023-09-19T05:28:02;100064.66;;;16.33;94.10
72558;BME280;60583;50.094;8.748;2023-09-19T05:30:31;100058.03;;;16.24;95.14
72558;BME280;60583;50.094;8.748;2023-09-19T05:32:57;100063.19;;;16.25;95.58
72558;BME280;60583;50.094;8.748;2023-09-19T05:35:23;100052.81;;;16.17;95.84
72558;BME280;60583;50.094;8.748;2023-09-19T05:37:52;100056.06;;;16.19;95.85
72558;BME280;60583;50.094;8.748;2023-09-19T05:40:18;100067.56;;;16.31;95.15
72558;BME280;60583;50.094;8.748;2023-09-19T05:42:44;100059.19;;;16.28;95.13
72558;BME280;60583;50.094;8.748;2023-09-19T05:45:10;100071.06;;;16.32;94.64
72558;BME280;60583;50.094;8.748;2023-09-19T05:47:41;100080.94;;;16.26;93.89
72558;BME280;60583;50.094;8.748;2023-09-19T05:50:09;100089.78;;;16.38;92.63
72558;BME280;60583;50.094;8.748;2023-09-19T05:52:35;100077.44;;;16.42;91.27
72558;BME280;60583;50.094;8.748;2023-09-19T05:55:06;100072.00;;;16.37;91.22
72558;BME280;60583;50.094;8.748;2023-09-19T05:57:35;100060.41;;;16.20;91.44
72558;BME280;60583;50.094;8.748;2023-09-19T06:00:01;100089.34;;;16.46;90.21
72558;BME280;60583;50.094;8.748;2023-09-19T06:02:26;100092.78;;;16.42;89.65
72558;BME280;60583;50.094;8.748;2023-09-19T06:04:54;100106.31;;;16.47;89.30
72558;BME280;60583;50.094;8.748;2023-09-19T06:07:24;100091.97;;;16.41;89.05
72558;BME280;60583;50.094;8.748;2023-09-19T06:09:51;100097.50;;;16.51;89.16
72558;BME280;60583;50.094;8.748;2023-09-19T06:12:18;100112.53;;;16.47;89.60
72558;BME280;60583;50.094;8.748;2023-09-19T06:14:44;100107.34;;;16.57;89.60
72558;BME280;60583;50.094;8.748;2023-09-19T06:17:09;100095.72;;;16.40;89.74
72558;BME280;60583;50.094;8.748;2023-09-19T06:19:35;100112.25;;;16.61;89.66
72558;BME280;60583;50.094;8.748;2023-09-19T06:22:01;100109.06;;;16.64;89.98
72558;BME280;60583;50.094;8.748;2023-09-19T06:24:26;100117.31;;;16.74;89.53
72558;BME280;60583;50.094;8.748;2023-09-19T06:26:52;100118.53;;;16.66;90.14
72558;BME280;60583;50.094;8.748;2023-09-19T06:29:18;100121.53;;;16.70;89.88
72558;BME280;60583;50.094;8.748;2023-09-19T06:31:43;100119.41;;;16.72;89.86
72558;BME280;60583;50.094;8.748;2023-09-19T06:34:10;100101.16;;;16.57;89.89
72558;BME280;60583;50.094;8.748;2023-09-19T06:36:35;100126.94;;;16.70;90.26
72558;BME280;60583;50.094;8.748;2023-09-19T06:39:01;100131.84;;;16.73;90.10
72558;BME280;60583;50.094;8.748;2023-09-19T06:41:29;100117.16;;;16.64;89.86
72558;BME280;60583;50.094;8.748;2023-09-19T06:43:55;100134.94;;;16.81;89.41
72558;BME280;60583;50.094;8.748;2023-09-19T06:46:20;100112.56;;;16.81;89.37
72558;BME280;60583;50.094;8.748;2023-09-19T06:48:46;100148.31;;;16.93;88.46
72558;BME280;60583;50.094;8.748;2023-09-19T06:51:13;100126.59;;;16.83;88.50
72558;BME280;60583;50.094;8.748;2023-09-19T06:53:41;100092.25;;;16.56;88.27
72558;BME280;60583;50.094;8.748;2023-09-19T06:56:06;100130.78;;;16.74;87.13
72558;BME280;60583;50.094;8.748;2023-09-19T06:58:31;100156.81;;;17.01;87.18
72558;BME280;60583;50.094;8.748;2023-09-19T07:00:57;100162.50;;;17.05;86.56
72558;BME280;60583;50.094;8.748;2023-09-19T07:03:22;100177.22;;;17.14;85.68
72558;BME280;60583;50.094;8.748;2023-09-19T07:05:51;100155.72;;;17.19;85.31
72558;BME280;60583;50.094;8.748;2023-09-19T07:08:16;100158.44;;;17.19;84.34
72558;BME280;60583;50.094;8.748;2023-09-19T07:10:42;100182.84;;;17.29;84.15
72558;BME280;60583;50.094;8.748;2023-09-19T07:13:14;100180.94;;;17.30;82.90
72558;BME280;60583;50.094;8.748;2023-09-19T07:15:42;100191.00;;;17.34;83.02
72558;BME280;60583;50.094;8.748;2023-09-19T07:18:12;100192.69;;;17.40;82.60
72558;BME280;60583;50.094;8.748;2023-09-19T07:20:40;100190.72;;;17.36;82.56
72558;BME280;60583;50.094;8.748;2023-09-19T07:23:11;100200.97;;;17.34;81.84
72558;BME280;60583;50.094;8.748;2023-09-19T07:25:39;100207.88;;;17.30;81.63
72558;BME280;60583;50.094;8.748;2023-09-19T07:28:04;100210.34;;;17.31;80.83
72558;BME280;60583;50.094;8.748;2023-09-19T07:30:30;100219.97;;;17.44;80.20
72558;BME280;60583;50.094;8.748;2023-09-19T07:32:55;100212.63;;;17.39;80.23
72558;BME280;60583;50.094;8.748;2023-09-19T07:35:21;100215.97;;;17.46;80.40
72558;BME280;60583;50.094;8.748;2023-09-19T07:37:47;100226.50;;;17.48;80.42
72558;BME280;60583;50.094;8.748;2023-09-19T07:40:17;100223.09;;;17.52;80.55
72558;BME280;60583;50.094;8.748;2023-09-19T07:42:43;100236.41;;;17.59;80.13
72558;BME280;60583;50.094;8.748;2023-09-19T07:45:10;100201.03;;;17.22;79.68
72558;BME280;60583;50.094;8.748;2023-09-19T07:47:49;100227.31;;;17.48;79.57
72558;BME280;60583;50.094;8.748;2023-09-19T07:50:17;100255.50;;;17.57;79.45
72558;BME280;60583;50.094;8.748;2023-09-19T07:52:49;100249.44;;;17.50;78.30
72558;BME280;60583;50.094;8.748;2023-09-19T07:55:16;100246.44;;;17.47;78.67
72558;BME280;60583;50.094;8.748;2023-09-19T07:57:43;100241.47;;;17.55;77.60
72558;BME280;60583;50.094;8.748;2023-09-19T08:00:09;100247.94;;;17.54;77.62
72558;BME280;60583;50.094;8.748;2023-09-19T08:02:39;100227.31;;;17.48;77.35
72558;BME280;60583;50.094;8.748;2023-09-19T08:05:06;100238.63;;;17.62;77.18
72558;BME280;60583;50.094;8.748;2023-09-19T08:07:34;100237.47;;;17.58;76.27
72558;BME280;60583;50.094;8.748;2023-09-19T08:10:02;100254.47;;;17.58;75.49
72558;BME280;60583;50.094;8.748;2023-09-19T08:12:27;100250.88;;;17.53;76.03
72558;BME280;60583;50.094;8.748;2023-09-19T08:14:53;100239.09;;;17.59;76.47
72558;BME280;60583;50.094;8.748;2023-09-19T08:17:18;100252.88;;;17.62;76.89
72558;BME280;60583;50.094;8.748;2023-09-19T08:19:45;100258.19;;;17.74;76.55
72558;BME280;60583;50.094;8.748;2023-09-19T08:22:11;100251.50;;;17.76;75.99
72558;BME280;60583;50.094;8.748;2023-09-19T08:24:37;100248.44;;;17.90;75.20
72558;BME280;60583;50.094;8.748;2023-09-19T08:27:04;100256.66;;;18.00;73.80
72558;BME280;60583;50.094;8.748;2023-09-19T08:29:30;100251.63;;;17.87;73.46
72558;BME280;60583;50.094;8.748;2023-09-19T08:31:57;100261.19;;;17.94;73.12
72558;BME280;60583;50.094;8.748;2023-09-19T08:34:24;100251.47;;;18.15;72.57
72558;BME280;60583;50.094;8.748;2023-09-19T08:36:53;100243.44;;;18.20;71.57
72558;BME280;60583;50.094;8.748;2023-09-19T08:39:25;100252.31;;;18.42;70.14
72558;BME280;60583;50.094;8.748;2023-09-19T08:42:00;100257.44;;;18.60;68.81
72558;BME280;60583;50.094;8.748;2023-09-19T08:44:27;100258.69;;;18.79;68.70
72558;BME280;60583;50.094;8.748;2023-09-19T08:47:06;100249.25;;;18.82;65.05
72558;BME280;60583;50.094;8.748;2023-09-19T08:49:40;100262.09;;;18.96;64.21
72558;BME280;60583;50.094;8.748;2023-09-19T08:52:40;100258.75;;;18.84;63.63
72558;BME280;60583;50.094;8.748;2023-09-19T08:55:07;100251.78;;;18.40;63.84
72558;BME280;60583;50.094;8.748;2023-09-19T08:57:37;100266.69;;;18.69;63.75
72558;BME280;60583;50.094;8.748;2023-09-19T09:00:07;100264.50;;;18.66;64.40
72558;BME280;60583;50.094;8.748;2023-09-19T09:02:39;100263.13;;;18.90;63.80
72558;BME280;60583;50.094;8.748;2023-09-19T09:05:10;100270.00;;;19.03;62.96
72558;BME280;60583;50.094;8.748;2023-09-19T09:07:37;100265.44;;;19.08;61.17
72558;BME280;60583;50.094;8.748;2023-09-19T09:10:03;100270.66;;;19.15;60.47
72558;BME280;60583;50.094;8.748;2023-09-19T09:12:29;100268.34;;;19.34;60.56
72558;BME280;60583;50.094;8.748;2023-09-19T09:14:55;100275.59;;;19.55;59.00
72558;BME280;60583;50.094;8.748;2023-09-19T09:17:23;100275.25;;;19.83;59.29
72558;BME280;60583;50.094;8.748;2023-09-19T09:19:52;100276.31;;;19.82;58.03
72558;BME280;60583;50.094;8.748;2023-09-19T09:22:17;100291.47;;;19.83;58.42
72558;BME280;60583;50.094;8.748;2023-09-19T09:27:19;100276.59;;;20.38;57.60
72558;BME280;60583;50.094;8.748;2023-09-19T09:29:47;100266.72;;;20.06;57.06
72558;BME280;60583;50.094;8.748;2023-09-19T09:32:25;100260.41;;;19.91;57.51
72558;BME280;60583;50.094;8.748;2023-09-19T09:35:01;100270.88;;;19.82;56.76
72558;BME280;60583;50.094;8.748;2023-09-19T09:37:28;100279.75;;;19.72;57.11
72558;BME280;60583;50.094;8.748;2023-09-19T09:39:59;100283.69;;;19.97;56.31
72558;BME280;60583;50.094;8.748;2023-09-19T09:42:44;100254.66;;;19.82;55.64
72558;BME280;60583;50.094;8.748;2023-09-19T09:45:21;100274.94;;;20.26;55.32
72558;BME280;60583;50.094;8.748;2023-09-19T09:48:03;100260.41;;;19.91;55.70
72558;BME280;60583;50.094;8.748;2023-09-19T09:50:34;100282.66;;;20.03;55.13
72558;BME280;60583;50.094;8.748;2023-09-19T09:53:27;100266.38;;;20.60;53.84
72558;BME280;60583;50.094;8.748;2023-09-19T09:56:03;100277.19;;;20.50;52.51
72558;BME280;60583;50.094;8.748;2023-09-19T09:58:52;100285.16;;;20.81;53.18
72558;BME280;60583;50.094;8.748;2023-09-19T10:01:24;100278.97;;;21.41;51.71
72558;BME280;60583;50.094;8.748;2023-09-19T10:03:57;100281.34;;;21.83;50.27
72558;BME280;60583;50.094;8.748;2023-09-19T10:06:22;100286.91;;;22.42;49.42
72558;BME280;60583;50.094;8.748;2023-09-19T10:09:07;100289.25;;;22.64;48.07
72558;BME280;60583;50.094;8.748;2023-09-19T10:11:47;100284.94;;;23.02;47.14
72558;BME280;60583;50.094;8.748;2023-09-19T10:14:25;100281.25;;;22.88;47.57
72558;BME280;60583;50.094;8.748;2023-09-19T10:16:56;100279.53;;;23.35;46.54
72558;BME280;60583;50.094;8.748;2023-09-19T10:19:33;100269.31;;;23.17;45.04
72558;BME280;60583;50.094;8.748;2023-09-19T10:22:02;100274.88;;;23.02;45.19
72558;BME280;60583;50.094;8.748;2023-09-19T10:24:28;100273.34;;;24.35;43.18
72558;BME280;60583;50.094;8.748;2023-09-19T10:26:54;100269.63;;;25.05;41.72
72558;BME280;60583;50.094;8.748;2023-09-19T10:29:21;100272.63;;;26.00;40.84
72558;BME280;60583;50.094;8.748;2023-09-19T10:31:48;100262.38;;;26.60;38.39
72558;BME280;60583;50.094;8.748;2023-09-19T10:34:16;100271.91;;;26.99;37.22
72558;BME280;60583;50.094;8.748;2023-09-19T10:36:45;100286.00;;;27.06;37.34
72558;BME280;60583;50.094;8.748;2023-09-19T10:39:16;100274.06;;;26.39;37.13
72558;BME280;60583;50.094;8.748;2023-09-19T10:41:49;100275.91;;;27.15;35.83
72558;BME280;60583;50.094;8.748;2023-09-19T10:44:23;100289.91;;;26.64;36.62
72558;BME280;60583;50.094;8.748;2023-09-19T10:46:51;100283.13;;;26.61;35.23
72558;BME280;60583;50.094;8.748;2023-09-19T10:49:18;100272.59;;;25.41;36.72
72558;BME280;60583;50.094;8.748;2023-09-19T10:51:44;100284.97;;;25.98;36.82
72558;BME280;60583;50.094;8.748;2023-09-19T10:54:15;100281.00;;;25.77;37.02
72558;BME280;60583;50.094;8.748;2023-09-19T10:56:45;100273.53;;;25.82;36.78
72558;BME280;60583;50.094;8.748;2023-09-19T10:59:21;100284.75;;;25.81;36.67
72558;BME280;60583;50.094;8.748;2023-09-19T11:01:56;100279.34;;;25.30;37.52
72558;BME280;60583;50.094;8.748;2023-09-19T11:04:31;100274.81;;;26.67;35.76
72558;BME280;60583;50.094;8.748;2023-09-19T11:09:55;100268.56;;;27.68;34.42
72558;BME280;60583;50.094;8.748;2023-09-19T11:15:03;100251.78;;;29.08;32.37
72558;BME280;60583;50.094;8.748;2023-09-19T11:17:43;100256.97;;;27.71;34.71
72558;BME280;60583;50.094;8.748;2023-09-19T11:30:38;100230.16;;;29.07;31.17
72558;BME280;60583;50.094;8.748;2023-09-19T11:36:16;100258.28;;;30.22;28.52
72558;BME280;60583;50.094;8.748;2023-09-19T11:43:49;100227.53;;;29.45;28.83
72558;BME280;60583;50.094;8.748;2023-09-19T11:46:24;100223.31;;;29.39;28.91
72558;BME280;60583;50.094;8.748;2023-09-19T11:48:53;100230.09;;;29.50;28.38
72558;BME280;60583;50.094;8.748;2023-09-19T11:51:20;100221.75;;;29.21;29.09
72558;BME280;60583;50.094;8.748;2023-09-19T11:53:53;100227.09;;;28.74;30.40
72558;BME280;60583;50.094;8.748;2023-09-19T11:56:23;100227.22;;;29.21;29.01
72558;BME280;60583;50.094;8.748;2023-09-19T11:58:52;100216.06;;;29.17;28.66
72558;BME280;60583;50.094;8.748;2023-09-19T12:01:43;100225.97;;;29.73;28.19
72558;BME280;60583;50.094;8.748;2023-09-19T12:04:17;100225.06;;;28.23;29.48
72558;BME280;60583;50.094;8.748;2023-09-19T12:06:56;100232.09;;;29.24;28.88
72558;BME280;60583;50.094;8.748;2023-09-19T12:09:22;100221.25;;;29.10;29.33
72558;BME280;60583;50.094;8.748;2023-09-19T12:11:47;100221.78;;;28.69;29.54
72558;BME280;60583;50.094;8.748;2023-09-19T12:14:22;100227.84;;;27.53;31.29
72558;BME280;60583;50.094;8.748;2023-09-19T12:16:54;100228.13;;;27.74;31.53
72558;BME280;60583;50.094;8.748;2023-09-19T12:19:22;100223.19;;;29.09;29.26
72558;BME280;60583;50.094;8.748;2023-09-19T12:22:00;100212.31;;;27.18;31.82
72558;BME280;60583;50.094;8.748;2023-09-19T12:24:34;100230.47;;;28.71;29.26
72558;BME280;60583;50.094;8.748;2023-09-19T12:27:06;100210.91;;;29.07;29.17
72558;BME280;60583;50.094;8.748;2023-09-19T12:29:45;100221.72;;;29.29;28.01
72558;BME280;60583;50.094;8.748;2023-09-19T12:32:10;100204.28;;;29.25;27.70
72558;BME280;60583;50.094;8.748;2023-09-19T12:34:36;100201.06;;;29.15;27.48
72558;BME280;60583;50.094;8.748;2023-09-19T12:37:10;100217.94;;;30.26;26.30
72558;BME280;60583;50.094;8.748;2023-09-19T12:39:44;100214.16;;;29.73;27.29
72558;BME280;60583;50.094;8.748;2023-09-19T12:42:14;100198.09;;;30.42;26.31
72558;BME280;60583;50.094;8.748;2023-09-19T12:44:45;100207.22;;;30.04;27.02
72558;BME280;60583;50.094;8.748;2023-09-19T12:47:14;100193.16;;;28.96;28.00
72558;BME280;60583;50.094;8.748;2023-09-19T12:50:06;100197.03;;;28.52;28.80
72558;BME280;60583;50.094;8.748;2023-09-19T12:52:40;100199.41;;;27.80;29.36
72558;BME280;60583;50.094;8.748;2023-09-19T12:55:06;100189.31;;;27.98;29.79
72558;BME280;60583;50.094;8.748;2023-09-19T12:57:35;100189.56;;;26.73;31.84
72558;BME280;60583;50.094;8.748;2023-09-19T13:00:02;100170.41;;;25.15;33.12
72558;BME280;60583;50.094;8.748;2023-09-19T13:02:30;100167.41;;;24.47;34.61
72558;BME280;60583;50.094;8.748;2023-09-19T13:04:56;100183.72;;;23.62;36.33
72558;BME280;60583;50.094;8.748;2023-09-19T13:07:42;100188.41;;;23.28;36.95
72558;BME280;60583;50.094;8.748;2023-09-19T13:10:09;100185.50;;;23.19;37.71
72558;BME280;60583;50.094;8.748;2023-09-19T13:12:36;100177.81;;;22.98;37.97
72558;BME280;60583;50.094;8.748;2023-09-19T13:15:15;100175.84;;;23.03;38.66
72558;BME280;60583;50.094;8.748;2023-09-19T13:17:49;100171.50;;;23.02;38.20
72558;BME280;60583;50.094;8.748;2023-09-19T13:20:24;100181.44;;;22.88;39.05
72558;BME280;60583;50.094;8.748;2023-09-19T13:22:53;100170.38;;;22.25;39.34
72558;BME280;60583;50.094;8.748;2023-09-19T13:25:23;100171.56;;;22.14;39.99
72558;BME280;60583;50.094;8.748;2023-09-19T13:27:54;100161.06;;;21.83;40.38
72558;BME280;60583;50.094;8.748;2023-09-19T13:30:26;100168.91;;;21.99;40.98
72558;BME280;60583;50.094;8.748;2023-09-19T13:32:52;100173.53;;;21.94;41.33
72558;BME280;60583;50.094;8.748;2023-09-19T13:35:19;100165.38;;;21.99;41.61
72558;BME280;60583;50.094;8.748;2023-09-19T13:37:46;100175.63;;;22.12;41.35
72558;BME280;60583;50.094;8.748;2023-09-19T13:40:14;100175.13;;;22.05;40.91